createdAt,value
2023-03-06T00:00:36.201Z,995.65
2023-03-06T00:01:36.201Z,995.64
2023-03-06T00:02:36.202Z,995.62
2023-03-06T00:03:36.224Z,995.63
2023-03-06T00:04:36.167Z,995.63
2023-03-06T00:05:36.190Z,995.62
2023-03-06T00:06:36.158Z,995.60
2023-03-06T00:07:36.146Z,995.59
2023-03-06T00:08:36.129Z,995.58
2023-03-06T00:09:36.122Z,995.57
2023-03-06T00:10:36.119Z,995.55
2023-03-06T00:11:36.095Z,995.54
2023-03-06T00:12:36.105Z,995.52
2023-03-06T00:13:36.082Z,995.52
2023-03-06T00:14:36.074Z,995.51
2023-03-06T00:15:36.059Z,995.51
2023-03-06T00:16:36.066Z,995.50
2023-03-06T00:17:36.074Z,995.49
2023-03-06T00:18:36.030Z,995.47
2023-03-06T00:19:36.010Z,995.48
2023-03-06T00:20:36.071Z,995.47
2023-03-06T00:21:36.028Z,995.46
2023-03-06T00:22:35.982Z,995.45
2023-03-06T00:23:36.006Z,995.44
2023-03-06T00:24:35.970Z,995.43
2023-03-06T00:25:35.951Z,995.42
2023-03-06T00:26:35.977Z,995.42
2023-03-06T00:27:35.936Z,995.40
2023-03-06T00:28:35.943Z,995.40
2023-03-06T00:29:35.915Z,995.39
2023-03-06T00:30:35.912Z,995.37
2023-03-06T00:31:35.929Z,995.37
2023-03-06T00:32:35.968Z,995.36
2023-03-06T00:33:35.865Z,995.35
2023-03-06T00:34:36.352Z,995.34
2023-03-06T00:35:35.945Z,995.33
2023-03-06T00:36:43.953Z,995.31
2023-03-06T00:37:36.501Z,995.30
2023-03-06T00:38:36.502Z,995.29
2023-03-06T00:39:35.818Z,995.28
2023-03-06T00:40:35.806Z,995.27
2023-03-06T00:41:35.792Z,995.28
2023-03-06T00:42:35.777Z,995.28
2023-03-06T00:43:35.758Z,995.28
2023-03-06T00:44:35.765Z,995.28
2023-03-06T00:45:35.778Z,995.27
2023-03-06T00:46:35.745Z,995.27
2023-03-06T00:47:35.719Z,995.27
2023-03-06T00:48:35.751Z,995.27
2023-03-06T00:49:35.712Z,995.26
2023-03-06T00:50:35.712Z,995.26
2023-03-06T00:51:35.678Z,995.25
2023-03-06T00:52:35.696Z,995.24
2023-03-06T00:53:35.668Z,995.23
2023-03-06T00:54:35.654Z,995.22
2023-03-06T00:55:35.644Z,995.21
2023-03-06T00:56:35.673Z,995.19
2023-03-06T00:57:35.615Z,995.16
2023-03-06T00:58:35.635Z,995.16
2023-03-06T00:59:35.608Z,995.15
2023-03-06T01:00:35.705Z,995.14
2023-03-06T01:01:35.641Z,995.13
2023-03-06T01:02:35.704Z,995.12
2023-03-06T01:03:35.582Z,995.11
2023-03-06T01:04:35.560Z,995.11
2023-03-06T01:05:35.529Z,995.10
2023-03-06T01:06:35.546Z,995.09
2023-03-06T01:07:35.515Z,995.07
2023-03-06T01:08:35.521Z,995.06
2023-03-06T01:09:35.519Z,995.05
2023-03-06T01:10:35.511Z,995.04
2023-03-06T01:11:35.470Z,995.03
2023-03-06T01:12:35.483Z,995.01
2023-03-06T01:13:35.462Z,995.00
2023-03-06T01:14:35.460Z,994.99
2023-03-06T01:15:35.439Z,994.99
2023-03-06T01:16:35.453Z,994.98
2023-03-06T01:17:35.412Z,994.97
2023-03-06T01:18:35.409Z,994.97
2023-03-06T01:19:35.382Z,994.96
2023-03-06T01:20:35.387Z,994.96
2023-03-06T01:21:35.402Z,994.97
2023-03-06T01:22:35.364Z,994.96
2023-03-06T01:23:35.352Z,994.95
2023-03-06T01:24:35.363Z,994.93
2023-03-06T01:25:35.338Z,994.93
2023-03-06T01:26:35.338Z,994.93
2023-03-06T01:27:35.322Z,994.92
2023-03-06T01:28:35.333Z,994.92
2023-03-06T01:29:35.281Z,994.92
2023-03-06T01:30:35.289Z,994.91
2023-03-06T01:31:35.335Z,994.89
2023-03-06T01:32:35.327Z,994.88
2023-03-06T01:33:35.240Z,994.88
2023-03-06T01:34:35.302Z,994.86
2023-03-06T01:35:35.306Z,994.85
2023-03-06T01:36:35.233Z,994.84
2023-03-06T01:37:35.223Z,994.84
2023-03-06T01:38:35.213Z,994.83
2023-03-06T01:39:35.193Z,994.82
2023-03-06T01:40:35.206Z,994.82
2023-03-06T01:41:35.213Z,994.81
2023-03-06T01:42:35.175Z,994.78
2023-03-06T01:43:35.173Z,994.77
2023-03-06T01:44:35.162Z,994.75
2023-03-06T01:45:35.252Z,994.73
2023-03-06T01:46:35.167Z,994.72
2023-03-06T01:47:35.136Z,994.72
2023-03-06T01:48:35.104Z,994.71
2023-03-06T01:49:42.601Z,994.72
2023-03-06T01:50:35.082Z,994.70
2023-03-06T01:51:35.766Z,994.69
2023-03-06T01:52:35.080Z,994.68
2023-03-06T01:53:35.051Z,994.67
2023-03-06T01:54:35.054Z,994.66
2023-03-06T01:55:35.033Z,994.64
2023-03-06T01:56:35.029Z,994.63
2023-03-06T01:57:35.018Z,994.62
2023-03-06T01:58:35.005Z,994.61
2023-03-06T01:59:34.982Z,994.60
2023-03-06T02:00:34.981Z,994.58
2023-03-06T02:01:34.984Z,994.58
2023-03-06T02:02:35.028Z,994.57
2023-03-06T02:03:34.958Z,994.56
2023-03-06T02:04:34.960Z,994.55
2023-03-06T02:05:34.939Z,994.54
2023-03-06T02:06:34.927Z,994.55
2023-03-06T02:07:34.940Z,994.54
2023-03-06T02:08:34.931Z,994.53
2023-03-06T02:09:34.913Z,994.53
2023-03-06T02:10:34.868Z,994.50
2023-03-06T02:11:34.924Z,994.49
2023-03-06T02:12:34.876Z,994.49
2023-03-06T02:13:34.866Z,994.47
2023-03-06T02:14:34.868Z,994.45
2023-03-06T02:15:34.846Z,994.43
2023-03-06T02:16:34.857Z,994.42
2023-03-06T02:17:34.828Z,994.40
2023-03-06T02:18:34.797Z,994.39
2023-03-06T02:19:34.810Z,994.38
2023-03-06T02:20:34.805Z,994.38
2023-03-06T02:21:34.773Z,994.38
2023-03-06T02:22:34.800Z,994.37
2023-03-06T02:23:34.764Z,994.36
2023-03-06T02:24:34.755Z,994.35
2023-03-06T02:25:34.741Z,994.33
2023-03-06T02:26:34.713Z,994.32
2023-03-06T02:27:34.739Z,994.32
2023-03-06T02:28:34.705Z,994.32
2023-03-06T02:29:34.762Z,994.32
2023-03-06T02:30:34.755Z,994.29
2023-03-06T02:31:34.705Z,994.28
2023-03-06T02:32:34.751Z,994.27
2023-03-06T02:33:34.680Z,994.24
2023-03-06T02:34:34.623Z,994.23
2023-03-06T02:35:34.679Z,994.21
2023-03-06T02:36:34.636Z,994.20
2023-03-06T02:37:34.622Z,994.19
2023-03-06T02:38:34.614Z,994.17
2023-03-06T02:39:34.658Z,994.16
2023-03-06T02:40:34.593Z,994.15
2023-03-06T02:41:34.590Z,994.14
2023-03-06T02:42:34.557Z,994.11
2023-03-06T02:43:34.578Z,994.08
2023-03-06T02:44:34.580Z,994.05
2023-03-06T02:45:34.543Z,994.02
2023-03-06T02:46:34.583Z,993.98
2023-03-06T02:47:34.527Z,993.96
2023-03-06T02:48:34.506Z,993.93
2023-03-06T02:49:34.507Z,993.90
2023-03-06T02:50:34.468Z,993.87
2023-03-06T02:51:34.481Z,993.85
2023-03-06T02:52:34.511Z,993.82
2023-03-06T02:53:34.444Z,993.80
2023-03-06T02:54:34.464Z,993.80
2023-03-06T02:55:34.443Z,993.81
2023-03-06T02:56:34.406Z,993.81
2023-03-06T02:57:34.401Z,993.82
2023-03-06T02:58:34.368Z,993.82
2023-03-06T02:59:34.377Z,993.81
2023-03-06T03:00:34.389Z,993.81
2023-03-06T03:01:34.453Z,993.78
2023-03-06T03:02:40.854Z,993.76
2023-03-06T03:03:34.970Z,993.75
2023-03-06T03:04:35.004Z,993.76
2023-03-06T03:05:34.927Z,993.80
2023-03-06T03:06:34.335Z,993.82
2023-03-06T03:07:34.304Z,993.82
2023-03-06T03:08:34.300Z,993.82
2023-03-06T03:09:34.284Z,993.84
2023-03-06T03:10:34.278Z,993.85
2023-03-06T03:11:34.306Z,993.85
2023-03-06T03:12:34.263Z,993.84
2023-03-06T03:13:34.253Z,993.85
2023-03-06T03:14:34.209Z,993.85
2023-03-06T03:15:34.254Z,993.85
2023-03-06T03:16:34.196Z,993.86
2023-03-06T03:17:34.187Z,993.85
2023-03-06T03:18:34.218Z,993.85
2023-03-06T03:19:34.205Z,993.83
2023-03-06T03:20:34.202Z,993.83
2023-03-06T03:21:34.179Z,993.82
2023-03-06T03:22:34.160Z,993.81
2023-03-06T03:23:34.147Z,993.79
2023-03-06T03:24:34.166Z,993.78
2023-03-06T03:25:34.133Z,993.79
2023-03-06T03:26:34.113Z,993.78
2023-03-06T03:27:34.110Z,993.78
2023-03-06T03:28:34.082Z,993.75
2023-03-06T03:29:34.083Z,993.75
2023-03-06T03:30:34.093Z,993.73
2023-03-06T03:31:34.115Z,993.72
2023-03-06T03:32:34.056Z,993.71
2023-03-06T03:33:34.026Z,993.71
2023-03-06T03:34:34.051Z,993.69
2023-03-06T03:35:34.048Z,993.68
2023-03-06T03:36:34.004Z,993.67
2023-03-06T03:37:33.997Z,993.67
2023-03-06T03:38:34.005Z,993.67
2023-03-06T03:39:34.011Z,993.66
2023-03-06T03:40:33.961Z,993.67
2023-03-06T03:41:33.984Z,993.67
2023-03-06T03:42:33.938Z,993.67
2023-03-06T03:43:33.936Z,993.66
2023-03-06T03:44:33.913Z,993.67
2023-03-06T03:45:33.961Z,993.64
2023-03-06T03:46:33.987Z,993.66
2023-03-06T03:47:33.923Z,993.66
2023-03-06T03:48:33.870Z,993.66
2023-03-06T03:49:33.894Z,993.64
2023-03-06T03:50:33.911Z,993.65
2023-03-06T03:51:33.858Z,993.64
2023-03-06T03:52:33.865Z,993.62
2023-03-06T03:53:33.843Z,993.62
2023-03-06T03:54:33.824Z,993.62
2023-03-06T03:55:33.811Z,993.59
2023-03-06T03:56:33.805Z,993.59
2023-03-06T03:57:33.919Z,993.56
2023-03-06T03:58:33.825Z,993.55
2023-03-06T03:59:33.794Z,993.55
2023-03-06T04:00:33.754Z,993.51
2023-03-06T04:01:33.772Z,993.52
2023-03-06T04:02:33.939Z,993.49
2023-03-06T04:03:33.778Z,993.49
2023-03-06T04:04:33.733Z,993.47
2023-03-06T04:05:33.701Z,993.46
2023-03-06T04:06:33.792Z,993.47
2023-03-06T04:07:33.701Z,993.49
2023-03-06T04:08:33.697Z,993.47
2023-03-06T04:09:33.695Z,993.49
2023-03-06T04:10:33.642Z,993.45
2023-03-06T04:11:33.698Z,993.42
2023-03-06T04:12:33.660Z,993.43
2023-03-06T04:13:33.732Z,993.41
2023-03-06T04:14:33.646Z,993.41
2023-03-06T04:15:33.636Z,993.39
2023-03-06T04:16:33.692Z,993.36
2023-03-06T04:17:33.575Z,993.37
2023-03-06T04:18:33.588Z,993.35
2023-03-06T04:19:33.590Z,993.31
2023-03-06T04:20:33.564Z,993.30
2023-03-06T04:21:33.879Z,993.29
2023-03-06T04:22:33.552Z,993.29
2023-03-06T04:23:33.567Z,993.27
2023-03-06T04:24:33.558Z,993.26
2023-03-06T04:25:33.491Z,993.25
2023-03-06T04:26:33.485Z,993.24
2023-03-06T04:27:33.532Z,993.22
2023-03-06T04:28:33.496Z,993.21
2023-03-06T04:29:33.473Z,993.21
2023-03-06T04:30:33.485Z,993.18
2023-03-06T04:31:33.520Z,993.18
2023-03-06T04:32:33.489Z,993.15
2023-03-06T04:33:33.422Z,993.14
2023-03-06T04:34:33.403Z,993.13
2023-03-06T04:35:33.493Z,993.14
2023-03-06T04:36:33.420Z,993.11
2023-03-06T04:37:33.424Z,993.08
2023-03-06T04:38:33.395Z,993.07
2023-03-06T04:39:33.389Z,993.07
2023-03-06T04:40:33.365Z,993.06
2023-03-06T04:41:33.351Z,993.05
2023-03-06T04:42:33.346Z,993.04
2023-03-06T04:43:33.330Z,993.00
2023-03-06T04:44:33.330Z,993.01
2023-03-06T04:45:33.361Z,993.01
2023-03-06T04:46:33.309Z,993.00
2023-03-06T04:47:33.319Z,992.99
2023-03-06T04:48:33.257Z,992.98
2023-03-06T04:49:33.258Z,992.97
2023-03-06T04:50:33.248Z,992.99
2023-03-06T04:51:33.287Z,993.00
2023-03-06T04:52:33.266Z,992.99
2023-03-06T04:53:33.250Z,992.99
2023-03-06T04:54:33.211Z,993.01
2023-03-06T04:55:33.216Z,993.01
2023-03-06T04:56:33.199Z,992.99
2023-03-06T04:57:33.187Z,992.99
2023-03-06T04:58:33.197Z,992.99
2023-03-06T04:59:33.218Z,992.97
2023-03-06T05:00:33.169Z,992.96
2023-03-06T05:01:33.143Z,992.97
2023-03-06T05:02:33.182Z,992.97
2023-03-06T05:03:33.189Z,992.97
2023-03-06T05:04:33.121Z,992.97
2023-03-06T05:05:33.128Z,992.96
2023-03-06T05:06:33.082Z,992.97
2023-03-06T05:07:33.080Z,992.95
2023-03-06T05:08:33.073Z,992.95
2023-03-06T05:09:33.054Z,992.97
2023-03-06T05:10:33.286Z,992.95
2023-03-06T05:11:33.039Z,992.94
2023-03-06T05:12:33.036Z,992.93
2023-03-06T05:13:33.032Z,992.91
2023-03-06T05:14:33.060Z,992.90
2023-03-06T05:15:33.008Z,992.90
2023-03-06T05:16:33.081Z,992.91
2023-03-06T05:17:32.983Z,992.90
2023-03-06T05:18:32.936Z,992.89
2023-03-06T05:19:32.973Z,992.86
2023-03-06T05:20:32.961Z,992.86
2023-03-06T05:21:32.953Z,992.86
2023-03-06T05:22:32.914Z,992.83
2023-03-06T05:23:32.912Z,992.82
2023-03-06T05:24:32.928Z,992.82
2023-03-06T05:25:32.904Z,992.83
2023-03-06T05:26:32.874Z,992.83
2023-03-06T05:27:32.868Z,992.82
2023-03-06T05:28:32.900Z,992.82
2023-03-06T05:29:32.856Z,992.82
2023-03-06T05:30:32.835Z,992.79
2023-03-06T05:31:32.942Z,992.78
2023-03-06T05:32:35.376Z,992.78
2023-03-06T05:33:32.808Z,992.77
2023-03-06T05:34:32.808Z,992.74
2023-03-06T05:35:32.908Z,992.73
2023-03-06T05:36:32.778Z,992.71
2023-03-06T05:37:32.772Z,992.69
2023-03-06T05:38:32.745Z,992.68
2023-03-06T05:39:32.791Z,992.67
2023-03-06T05:40:32.764Z,992.70
2023-03-06T05:41:32.771Z,992.68
2023-03-06T05:42:32.749Z,992.69
2023-03-06T05:43:32.664Z,992.67
2023-03-06T05:44:32.661Z,992.62
2023-03-06T05:45:32.684Z,992.61
2023-03-06T05:46:32.629Z,992.58
2023-03-06T05:47:32.630Z,992.57
2023-03-06T05:48:32.593Z,992.57
2023-03-06T05:49:32.599Z,992.57
2023-03-06T05:50:32.579Z,992.55
2023-03-06T05:51:32.574Z,992.56
2023-03-06T05:52:32.557Z,992.55
2023-03-06T05:53:32.556Z,992.54
2023-03-06T05:54:32.556Z,992.53
2023-03-06T05:55:32.565Z,992.52
2023-03-06T05:56:32.569Z,992.55
2023-03-06T05:57:32.518Z,992.55
2023-03-06T05:58:32.547Z,992.54
2023-03-06T05:59:32.485Z,992.53
2023-03-06T06:00:32.479Z,992.52
2023-03-06T06:01:32.496Z,992.53
2023-03-06T06:02:32.534Z,992.51
2023-03-06T06:03:32.460Z,992.51
2023-03-06T06:04:32.481Z,992.50
2023-03-06T06:05:32.441Z,992.49
2023-03-06T06:06:32.462Z,992.49
2023-03-06T06:07:32.419Z,992.48
2023-03-06T06:08:32.386Z,992.47
2023-03-06T06:09:32.400Z,992.46
2023-03-06T06:10:32.368Z,992.46
2023-03-06T06:11:32.426Z,992.47
2023-03-06T06:12:32.344Z,992.45
2023-03-06T06:13:32.352Z,992.46
2023-03-06T06:14:32.355Z,992.47
2023-03-06T06:15:32.395Z,992.43
2023-03-06T06:16:32.306Z,992.43
2023-03-06T06:17:32.318Z,992.41
2023-03-06T06:18:32.293Z,992.42
2023-03-06T06:19:32.296Z,992.43
2023-03-06T06:20:32.307Z,992.41
2023-03-06T06:21:32.259Z,992.42
2023-03-06T06:22:32.268Z,992.42
2023-03-06T06:23:32.237Z,992.43
2023-03-06T06:24:32.277Z,992.42
2023-03-06T06:25:32.237Z,992.42
2023-03-06T06:26:32.260Z,992.40
2023-03-06T06:27:32.213Z,992.40
2023-03-06T06:28:32.222Z,992.41
2023-03-06T06:29:32.187Z,992.39
2023-03-06T06:30:32.235Z,992.40
2023-03-06T06:31:32.244Z,992.41
2023-03-06T06:32:32.270Z,992.40
2023-03-06T06:33:32.164Z,992.41
2023-03-06T06:34:32.141Z,992.41
2023-03-06T06:35:32.136Z,992.41
2023-03-06T06:36:32.120Z,992.39
2023-03-06T06:37:32.122Z,992.41
2023-03-06T06:38:32.106Z,992.40
2023-03-06T06:39:32.096Z,992.41
2023-03-06T06:40:32.105Z,992.42
2023-03-06T06:41:59.803Z,992.44
2023-03-06T06:42:40.289Z,992.43
2023-03-06T06:43:33.634Z,992.45
2023-03-06T06:44:32.052Z,992.45
2023-03-06T06:45:32.010Z,992.45
2023-03-06T06:47:18.139Z,992.45
2023-03-06T06:47:32.071Z,992.45
2023-03-06T06:48:32.009Z,992.45
2023-03-06T06:49:31.995Z,992.45
2023-03-06T06:50:31.968Z,992.46
2023-03-06T06:51:31.992Z,992.47
2023-03-06T06:52:31.955Z,992.45
2023-03-06T06:53:31.921Z,992.46
2023-03-06T06:54:31.946Z,992.46
2023-03-06T06:55:31.962Z,992.47
2023-03-06T06:56:31.905Z,992.48
2023-03-06T06:57:31.950Z,992.49
2023-03-06T06:58:31.886Z,992.47
2023-03-06T06:59:31.888Z,992.47
2023-03-06T07:00:31.902Z,992.48
2023-03-06T07:01:31.873Z,992.47
2023-03-06T07:02:31.868Z,992.49
2023-03-06T07:03:31.898Z,992.49
2023-03-06T07:04:31.835Z,992.48
2023-03-06T07:05:31.852Z,992.48
2023-03-06T07:06:31.834Z,992.46
2023-03-06T07:07:31.832Z,992.47
2023-03-06T07:08:31.787Z,992.46
2023-03-06T07:09:31.773Z,992.45
2023-03-06T07:10:31.774Z,992.47
2023-03-06T07:11:31.781Z,992.47
2023-03-06T07:12:31.758Z,992.46
2023-03-06T07:13:31.797Z,992.43
2023-03-06T07:14:31.738Z,992.43
2023-03-06T07:15:31.727Z,992.42
2023-03-06T07:16:31.728Z,992.44
2023-03-06T07:17:31.690Z,992.44
2023-03-06T07:18:31.708Z,992.47
2023-03-06T07:19:31.696Z,992.49
2023-03-06T07:20:31.684Z,992.49
2023-03-06T07:21:31.657Z,992.49
2023-03-06T07:22:41.461Z,992.51
2023-03-06T07:23:31.661Z,992.50
2023-03-06T07:24:31.639Z,992.53
2023-03-06T07:25:31.625Z,992.54
2023-03-06T07:26:34.497Z,992.54
2023-03-06T07:27:31.622Z,992.55
2023-03-06T07:28:40.103Z,992.56
2023-03-06T07:29:31.578Z,992.56
2023-03-06T07:30:31.638Z,992.58
2023-03-06T07:31:31.585Z,992.59
2023-03-06T07:32:31.681Z,992.59
2023-03-06T07:33:31.534Z,992.59
2023-03-06T07:34:31.544Z,992.59
2023-03-06T07:35:31.580Z,992.58
2023-03-06T07:36:31.528Z,992.58
2023-03-06T07:37:31.485Z,992.58
2023-03-06T07:38:31.491Z,992.59
2023-03-06T07:39:31.515Z,992.60
2023-03-06T07:40:31.461Z,992.60
2023-03-06T07:41:31.468Z,992.62
2023-03-06T07:42:31.471Z,992.61
2023-03-06T07:43:31.441Z,992.62
2023-03-06T07:44:31.429Z,992.62
2023-03-06T07:45:31.436Z,992.63
2023-03-06T07:46:31.514Z,992.64
2023-03-06T07:47:31.411Z,992.65
2023-03-06T07:48:31.398Z,992.64
2023-03-06T07:49:31.381Z,992.64
2023-03-06T07:50:31.399Z,992.63
2023-03-06T07:51:31.385Z,992.62
2023-03-06T07:52:31.340Z,992.62
2023-03-06T07:53:31.346Z,992.63
2023-03-06T07:54:31.482Z,992.62
2023-03-06T07:55:31.338Z,992.62
2023-03-06T07:56:38.423Z,992.62
2023-03-06T07:57:31.317Z,992.64
2023-03-06T07:58:31.916Z,992.65
2023-03-06T07:59:31.277Z,992.66
2023-03-06T08:00:31.272Z,992.67
2023-03-06T08:01:31.254Z,992.68
2023-03-06T08:02:31.309Z,992.69
2023-03-06T08:03:31.291Z,992.70
2023-03-06T08:04:31.263Z,992.70
2023-03-06T08:05:31.221Z,992.70
2023-03-06T08:06:31.208Z,992.70
2023-03-06T08:07:31.185Z,992.71
2023-03-06T08:08:31.214Z,992.71
2023-03-06T08:09:31.165Z,992.72
2023-03-06T08:10:31.187Z,992.73
2023-03-06T08:11:31.161Z,992.73
2023-03-06T08:12:31.146Z,992.74
2023-03-06T08:13:31.118Z,992.75
2023-03-06T08:14:31.140Z,992.74
2023-03-06T08:15:31.092Z,992.75
2023-03-06T08:16:31.248Z,992.75
2023-03-06T08:17:31.103Z,992.76
2023-03-06T08:18:31.089Z,992.77
2023-03-06T08:19:31.181Z,992.78
2023-03-06T08:20:31.057Z,992.78
2023-03-06T08:21:31.088Z,992.79
2023-03-06T08:22:31.111Z,992.80
2023-03-06T08:23:31.023Z,992.80
2023-03-06T08:24:31.036Z,992.80
2023-03-06T08:25:31.013Z,992.81
2023-03-06T08:26:31.025Z,992.82
2023-03-06T08:27:30.976Z,992.83
2023-03-06T08:28:30.993Z,992.85
2023-03-06T08:29:32.311Z,992.85
2023-03-06T08:30:30.965Z,992.85
2023-03-06T08:31:30.999Z,992.85
2023-03-06T08:32:30.998Z,992.86
2023-03-06T08:33:30.920Z,992.86
2023-03-06T08:34:30.932Z,992.88
2023-03-06T08:35:30.909Z,992.87
2023-03-06T08:36:30.908Z,992.88
2023-03-06T08:37:30.948Z,992.88
2023-03-06T08:38:30.894Z,992.87
2023-03-06T08:39:30.853Z,992.87
2023-03-06T08:40:30.857Z,992.87
2023-03-06T08:41:30.839Z,992.87
2023-03-06T08:42:30.854Z,992.86
2023-03-06T08:43:30.980Z,992.86
2023-03-06T08:44:30.825Z,992.86
2023-03-06T08:45:30.820Z,992.84
2023-03-06T08:46:30.792Z,992.87
2023-03-06T08:47:30.806Z,992.85
2023-03-06T08:48:30.836Z,992.84
2023-03-06T08:49:30.756Z,992.83
2023-03-06T08:50:30.747Z,992.82
2023-03-06T08:51:30.819Z,992.81
2023-03-06T08:52:30.777Z,992.82
2023-03-06T08:53:42.534Z,992.81
2023-03-06T08:54:30.795Z,992.80
2023-03-06T08:55:30.691Z,992.80
2023-03-06T08:56:30.746Z,992.80
2023-03-06T08:57:30.758Z,992.78
2023-03-06T08:58:30.677Z,992.78
2023-03-06T08:59:30.666Z,992.78
2023-03-06T09:00:30.681Z,992.77
2023-03-06T09:01:30.677Z,992.77
2023-03-06T09:02:30.662Z,992.78
2023-03-06T09:03:30.612Z,992.78
2023-03-06T09:04:30.607Z,992.77
2023-03-06T09:05:30.587Z,992.77
2023-03-06T09:06:30.584Z,992.77
2023-03-06T09:07:30.602Z,992.77
2023-03-06T09:08:30.591Z,992.77
2023-03-06T09:09:30.592Z,992.78
2023-03-06T09:10:37.153Z,992.77
2023-03-06T09:11:33.079Z,992.77
2023-03-06T09:12:32.608Z,992.76
2023-03-06T09:13:30.506Z,992.76
2023-03-06T09:14:30.534Z,992.75
2023-03-06T09:15:30.503Z,992.74
2023-03-06T09:16:30.515Z,992.74
2023-03-06T09:17:30.480Z,992.74
2023-03-06T09:18:30.475Z,992.75
2023-03-06T09:19:30.484Z,992.76
2023-03-06T09:20:30.446Z,992.76
2023-03-06T09:21:30.439Z,992.77
2023-03-06T09:22:30.423Z,992.76
2023-03-06T09:23:30.428Z,992.77
2023-03-06T09:24:30.418Z,992.78
2023-03-06T09:25:30.388Z,992.77
2023-03-06T09:26:44.967Z,992.78
2023-03-06T09:27:30.392Z,992.76
2023-03-06T09:28:30.512Z,992.76
2023-03-06T09:29:30.350Z,992.77
2023-03-06T09:30:30.379Z,992.77
2023-03-06T09:31:30.432Z,992.78
2023-03-06T09:32:30.346Z,992.78
2023-03-06T09:33:30.306Z,992.80
2023-03-06T09:34:30.309Z,992.80
2023-03-06T09:35:30.332Z,992.81
2023-03-06T09:36:30.278Z,992.79
2023-03-06T09:37:30.256Z,992.79
2023-03-06T09:38:30.275Z,992.79
2023-03-06T09:39:30.252Z,992.78
2023-03-06T09:40:30.265Z,992.78
2023-03-06T09:41:30.221Z,992.79
2023-03-06T09:42:30.223Z,992.79
2023-03-06T09:43:30.211Z,992.79
2023-03-06T09:44:30.214Z,992.79
2023-03-06T09:45:30.186Z,992.81
2023-03-06T09:46:30.242Z,992.81
2023-03-06T09:47:30.225Z,992.81
2023-03-06T09:48:30.157Z,992.80
2023-03-06T09:49:30.157Z,992.81
2023-03-06T09:50:30.151Z,992.81
2023-03-06T09:51:30.117Z,992.80
2023-03-06T09:52:30.145Z,992.79
2023-03-06T09:53:30.096Z,992.80
2023-03-06T09:54:30.139Z,992.80
2023-03-06T09:55:30.107Z,992.80
2023-03-06T09:56:30.074Z,992.80
2023-03-06T09:57:30.101Z,992.80
2023-03-06T09:58:30.084Z,992.81
2023-03-06T09:59:30.037Z,992.81
2023-03-06T10:00:30.033Z,992.82
2023-03-06T10:01:30.029Z,992.82
2023-03-06T10:02:30.116Z,992.83
2023-03-06T10:03:30.102Z,992.85
2023-03-06T10:04:30.058Z,992.85
2023-03-06T10:05:29.986Z,992.85
2023-03-06T10:06:29.976Z,992.84
2023-03-06T10:07:29.954Z,992.83
2023-03-06T10:08:29.948Z,992.83
2023-03-06T10:09:29.968Z,992.84
2023-03-06T10:10:29.933Z,992.85
2023-03-06T10:11:29.908Z,992.85
2023-03-06T10:12:29.907Z,992.85
2023-03-06T10:13:29.889Z,992.86
2023-03-06T10:14:29.910Z,992.86
2023-03-06T10:15:29.959Z,992.86
2023-03-06T10:16:29.876Z,992.84
2023-03-06T10:17:29.868Z,992.85
2023-03-06T10:18:29.861Z,992.84
2023-03-06T10:19:29.837Z,992.85
2023-03-06T10:20:29.833Z,992.84
2023-03-06T10:21:29.833Z,992.85
2023-03-06T10:22:29.824Z,992.85
2023-03-06T10:23:29.802Z,992.85
2023-03-06T10:24:29.781Z,992.86
2023-03-06T10:25:29.784Z,992.87
2023-03-06T10:26:29.911Z,992.88
2023-03-06T10:27:29.773Z,992.89
2023-03-06T10:28:29.750Z,992.88
2023-03-06T10:29:29.725Z,992.88
2023-03-06T10:30:29.742Z,992.90
2023-03-06T10:31:29.766Z,992.91
2023-03-06T10:32:39.508Z,992.91
2023-03-06T10:33:29.707Z,992.92
2023-03-06T10:34:29.695Z,992.92
2023-03-06T10:35:30.789Z,992.93
2023-03-06T10:36:29.660Z,992.93
2023-03-06T10:37:31.019Z,992.93
2023-03-06T10:38:29.668Z,992.93
2023-03-06T10:39:29.651Z,992.93
2023-03-06T10:40:29.638Z,992.94
2023-03-06T10:41:29.621Z,992.94
2023-03-06T10:42:29.592Z,992.95
2023-03-06T10:43:29.634Z,992.95
2023-03-06T10:44:29.590Z,992.95
2023-03-06T10:45:35.185Z,992.95
2023-03-06T10:46:29.638Z,992.94
2023-03-06T10:47:29.551Z,992.93
2023-03-06T10:48:29.606Z,992.93
2023-03-06T10:49:29.560Z,992.93
2023-03-06T10:50:29.515Z,992.93
2023-03-06T10:51:29.533Z,992.93
2023-03-06T10:52:29.490Z,992.93
2023-03-06T10:53:29.502Z,992.92
2023-03-06T10:54:29.510Z,992.93
2023-03-06T10:55:29.470Z,992.93
2023-03-06T10:56:29.545Z,992.93
2023-03-06T10:57:29.496Z,992.93
2023-03-06T10:58:29.436Z,992.92
2023-03-06T10:59:29.520Z,992.93
2023-03-06T11:00:29.445Z,992.93
2023-03-06T11:01:29.514Z,992.93
2023-03-06T11:02:29.392Z,992.92
2023-03-06T11:03:29.435Z,992.93
2023-03-06T11:04:29.447Z,992.91
2023-03-06T11:05:29.398Z,992.94
2023-03-06T11:06:29.394Z,992.92
2023-03-06T11:07:29.379Z,992.91
2023-03-06T11:08:29.334Z,992.93
2023-03-06T11:09:29.428Z,992.93
2023-03-06T11:10:29.320Z,992.92
2023-03-06T11:11:37.512Z,992.92
2023-03-06T11:12:29.338Z,992.93
2023-03-06T11:13:29.290Z,992.93
2023-03-06T11:14:29.361Z,992.92
2023-03-06T11:15:29.329Z,992.92
2023-03-06T11:16:29.337Z,992.91
2023-03-06T11:17:29.667Z,992.91
2023-03-06T11:18:29.241Z,992.92
2023-03-06T11:19:29.320Z,992.91
2023-03-06T11:20:35.833Z,992.92
2023-03-06T11:21:31.403Z,992.94
2023-03-06T11:22:29.198Z,992.94
2023-03-06T11:23:29.208Z,992.95
2023-03-06T11:24:29.180Z,992.96
2023-03-06T11:25:29.195Z,992.93
2023-03-06T11:26:29.200Z,992.93
2023-03-06T11:27:29.146Z,992.90
2023-03-06T11:28:29.164Z,992.88
2023-03-06T11:29:29.593Z,992.88
2023-03-06T11:30:29.140Z,992.87
2023-03-06T11:31:29.153Z,992.84
2023-03-06T11:32:29.159Z,992.84
2023-03-06T11:33:29.127Z,992.83
2023-03-06T11:34:29.090Z,992.84
2023-03-06T11:35:29.098Z,992.83
2023-03-06T11:36:29.106Z,992.82
2023-03-06T11:37:29.079Z,992.80
2023-03-06T11:38:29.053Z,992.81
2023-03-06T11:39:29.039Z,992.80
2023-03-06T11:40:29.016Z,992.80
2023-03-06T11:41:29.009Z,992.83
2023-03-06T11:42:29.016Z,992.83
2023-03-06T11:43:28.987Z,992.82
2023-03-06T11:44:28.981Z,992.81
2023-03-06T11:45:29.006Z,992.82
2023-03-06T11:46:29.023Z,992.80
2023-03-06T11:47:28.952Z,992.80
2023-03-06T11:48:28.930Z,992.79
2023-03-06T11:49:28.966Z,992.81
2023-03-06T11:50:28.927Z,992.82
2023-03-06T11:51:28.927Z,992.80
2023-03-06T11:52:28.902Z,992.81
2023-03-06T11:53:28.893Z,992.80
2023-03-06T11:54:28.884Z,992.78
2023-03-06T11:55:28.868Z,992.77
2023-03-06T11:56:31.406Z,992.75
2023-03-06T11:57:28.855Z,992.75
2023-03-06T11:58:28.836Z,992.74
2023-03-06T11:59:28.831Z,992.72
2023-03-06T12:00:28.838Z,992.71
2023-03-06T12:01:28.836Z,992.69
2023-03-06T12:02:28.805Z,992.68
2023-03-06T12:03:28.813Z,992.68
2023-03-06T12:04:29.066Z,992.68
2023-03-06T12:05:28.868Z,992.66
2023-03-06T12:06:28.751Z,992.64
2023-03-06T12:07:28.748Z,992.67
2023-03-06T12:08:28.750Z,992.65
2023-03-06T12:09:28.737Z,992.63
2023-03-06T12:10:28.719Z,992.64
2023-03-06T12:11:29.723Z,992.64
2023-03-06T12:12:28.725Z,992.66
2023-03-06T12:13:28.701Z,992.66
2023-03-06T12:14:28.687Z,992.63
2023-03-06T12:15:28.715Z,992.61
2023-03-06T12:16:28.719Z,992.61
2023-03-06T12:17:28.648Z,992.60
2023-03-06T12:18:28.620Z,992.58
2023-03-06T12:19:28.627Z,992.57
2023-03-06T12:20:28.621Z,992.57
2023-03-06T12:21:28.618Z,992.56
2023-03-06T12:22:30.776Z,992.57
2023-03-06T12:23:28.581Z,992.58
2023-03-06T12:24:28.551Z,992.57
2023-03-06T12:25:28.560Z,992.56
2023-03-06T12:26:28.545Z,992.55
2023-03-06T12:27:28.552Z,992.53
2023-03-06T12:28:28.525Z,992.52